Aviation Digital Data Service (ADDS)

Output produced by METARs form (0950 UTC 26 May 2019)
found at http://www.aviationweather.gov/metar/data/
 
TAPA 260900Z 09003KT 9999 FEW018 BKN036 25/23 Q1014 NOSIG
TAPA 260800Z VRB02KT 9999 -RA SCT016 BKN036 23/22 Q1014 NOSIG
TAPA 260700Z 06006KT 9999 -RA SCT016 BKN036 25/23 Q1013 NOSIG
TAPA 260600Z 09005KT 9999 -RA FEW016 BKN036 24/22 Q1014 NOSIG
TAF TAPA 260500Z 2606/2706 11010KT 9999 SCT018 SCT035 
     TEMPO 2606/2612 SHRA 
     PROB40 
     TEMPO 2606/2610 +SHRA FEW014CB BKN018 
     TEMPO 2616/2622 SHRA 
     PROB30 
     TEMPO 2622/2704 SHRA
       
TKPK 260538Z 2606/2706 08008KT P6SM VCSH SCT020 BKN050 AMD NOT SKED TIL 261100
       
TAF TUPJ 260000Z 2600/2624 12008KT 9999 SCT020 
     PROB30 
     TEMPO 2606/2612 SHRA